»·PEaware :: SKY143 KABQ-KSKX

SKY143 :: KABQ-KSKX

FLIGHT INFORMATION

Flight Status: Arrived
Operator:
Skymark Airlines
More flights by this operator :: More flights under this callsign
Pilot: Anonymous 16492 (16492)
Aircraft: Unknown
(EPIC)
More flights by this aircraft type
Origin: KABQ Albuquerque Intl Sunport
United States
Destination: KSKX Taos Regl
United States
More flights between these airports :: More routes between these airports
Route: +KABQ ABQ3 ABQ V611 SAF V83 DIXAN KSKX
File this flight plan on PilotEdge
Remarks:
Altitude:
(Current/Filed)
9,000ft
Speed:
(Current/Filed)
330kts
Departed: 02-Aug-18 04:40 PM
Arrived: 02-Aug-18 05:23 PM
Distance/Time
Traveled:
97nm/0:43
Distance/Time
To Go:
Arrived

Flight Plot

Page will automatically refresh every two minutes.

Flight plan parsing failed; only flown route is shown


Map Options




Map Legend


Flown Route
Filed Route
Departure Airport
Arrival Airport
Navaid (VOR, NDB)
Fix

Horizontal Profiles

Position Reports

Time Latitude Longitude Heading Altitude Ground
Speed
02-Aug-18 16:18 35.035553 -106.619420 137 5358ft 0kts
02-Aug-18 16:19 35.035553 -106.619420 137 5358ft 0kts
02-Aug-18 16:20 35.035553 -106.619420 137 5358ft 0kts
02-Aug-18 16:21 35.035553 -106.619420 137 5358ft 0kts
02-Aug-18 16:22 35.035553 -106.619420 137 5358ft 0kts
02-Aug-18 16:23 35.035553 -106.619420 137 5358ft 0kts
02-Aug-18 16:24 35.035553 -106.619420 137 5358ft 0kts
02-Aug-18 16:25 35.035553 -106.619420 137 5358ft 0kts
02-Aug-18 16:26 35.035553 -106.619420 137 5358ft 0kts
02-Aug-18 16:27 35.035553 -106.619420 137 5358ft 0kts
02-Aug-18 16:28 35.035553 -106.619419 137 5358ft 0kts
02-Aug-18 16:29 35.035553 -106.619419 137 5358ft 0kts
02-Aug-18 16:30 35.035553 -106.619419 137 5358ft 0kts
02-Aug-18 16:31 35.035553 -106.619419 137 5358ft 0kts
02-Aug-18 16:32 35.035423 -106.619327 166 5358ft 3kts
02-Aug-18 16:33 35.034888 -106.619162 135 5358ft 0kts
02-Aug-18 16:34 35.034888 -106.619162 135 5358ft 0kts
02-Aug-18 16:35 35.034734 -106.617687 42 5358ft 12kts
02-Aug-18 16:36 35.038275 -106.614467 304 5358ft 20kts
02-Aug-18 16:37 35.042024 -106.620454 306 5358ft 23kts
02-Aug-18 16:38 35.043062 -106.621417 359 5358ft 0kts
02-Aug-18 16:39 35.043062 -106.621417 359 5358ft 0kts
02-Aug-18 16:40 35.043444 -106.621421 359 5358ft 7kts
02-Aug-18 16:41 35.044473 -106.608559 87 5478ft 143kts
02-Aug-18 16:42 35.079893 -106.605746 318 7997ft 199kts
02-Aug-18 16:43 35.125076 -106.653149 317 8015ft 212kts
02-Aug-18 16:44 35.161925 -106.691703 318 8023ft 208kts
02-Aug-18 16:45 35.211838 -106.675770 43 8955ft 173kts
02-Aug-18 16:46 35.246008 -106.639843 38 9021ft 214kts
02-Aug-18 16:47 35.295888 -106.593355 36 9008ft 232kts
02-Aug-18 16:48 35.355773 -106.537229 56 8994ft 234kts
02-Aug-18 16:49 35.381003 -106.478791 63 9024ft 234kts
02-Aug-18 16:50 35.409360 -106.407019 64 9058ft 234kts
02-Aug-18 16:51 35.441896 -106.322795 64 9079ft 235kts
02-Aug-18 16:52 35.465070 -106.262469 64 9082ft 236kts
02-Aug-18 16:53 35.492931 -106.189744 64 9082ft 236kts
02-Aug-18 16:54 35.520735 -106.117050 64 10200ft 237kts
02-Aug-18 16:55 35.567103 -106.065926 11 11087ft 260kts
02-Aug-18 16:56 35.642841 -106.050676 7 11083ft 286kts
02-Aug-18 16:57 35.722136 -106.038420 6 11092ft 292kts
02-Aug-18 16:58 35.802364 -106.026532 6 11116ft 289kts
02-Aug-18 16:59 35.877784 -106.015378 6 11131ft 267kts
02-Aug-18 17:00 35.949243 -106.004806 6 11138ft 259kts
02-Aug-18 17:01 36.019398 -105.994404 6 11145ft 256kts
02-Aug-18 17:02 36.089361 -105.984031 6 11144ft 255kts
02-Aug-18 17:03 36.158801 -105.973723 6 11134ft 256kts
02-Aug-18 17:04 36.228557 -105.963336 6 11127ft 250kts
02-Aug-18 17:05 36.289411 -105.942019 53 11118ft 222kts
02-Aug-18 17:06 36.322039 -105.887276 51 12014ft 159kts
02-Aug-18 17:07 36.347332 -105.847464 49 12123ft 133kts
02-Aug-18 17:08 36.370946 -105.810472 51 12757ft 129kts
02-Aug-18 17:09 36.397636 -105.768639 50 14323ft 188kts
02-Aug-18 17:10 36.441046 -105.720374 355 15150ft 251kts
02-Aug-18 17:11 36.458908 -105.792611 247 15134ft 282kts
02-Aug-18 17:12 36.429179 -105.885385 247 15128ft 294kts
02-Aug-18 17:13 36.398761 -105.980404 248 15128ft 297kts
02-Aug-18 17:14 36.336224 -106.032460 188 15129ft 301kts
02-Aug-18 17:15 36.266998 -106.003412 104 15128ft 287kts
02-Aug-18 17:16 36.300979 -105.932532 41 14352ft 240kts
02-Aug-18 17:17 36.345777 -105.877850 54 12904ft 206kts
02-Aug-18 17:18 36.374607 -105.825966 55 11377ft 167kts
02-Aug-18 17:19 36.400385 -105.778759 56 9459ft 169kts
02-Aug-18 17:20 36.426426 -105.731230 53 8048ft 156kts
02-Aug-18 17:21 36.458889 -105.693997 46 7637ft 156kts
02-Aug-18 17:22 36.482360 -105.657441 65 7532ft 123kts
02-Aug-18 17:23 36.469604 -105.646588 249 7445ft 97kts
02-Aug-18 17:24 36.458048 -105.672614 236 7094ft 38kts
02-Aug-18 17:25 36.460165 -105.671174 6 7094ft 9kts
02-Aug-18 17:26 36.460419 -105.670818 149 7094ft 0kts
02-Aug-18 17:27 36.460419 -105.670818 149 7094ft 0kts
02-Aug-18 17:28 36.460419 -105.670818 149 7094ft 0kts
02-Aug-18 17:29 36.460419 -105.670818 149 7094ft 0kts
02-Aug-18 17:30 36.460419 -105.670818 149 7094ft 0kts
02-Aug-18 17:31 36.460419 -105.670818 149 7094ft 0kts
02-Aug-18 17:32 36.460419 -105.670818 149 7094ft 0kts

Navigation Log

Ident Type
Flight plan parsing failed, navigation log unavailable